Time;durP1;ratioP1;P1;durP2;ratioP2;P2;SDS_P1;SDS_P2;PMS_P1;PMS_P2;Temp;Humidity;BMP_temperature;BMP_pressure;BME280_temperature;BME280_humidity;BME280_pressure;Samples;Min_cycle;Max_cycle;Signal;HPM_P1;HPM_P2
2021/10/11 00:00:24;;;;;;;19.43;13.40;;;;;;;6.18;82.60;102420.25;4975091;28;20231;-78
2021/10/11 00:02:49;;;;;;;19.20;13.83;;;;;;;6.20;82.77;102422.91;4975232;28;20192;-78
2021/10/11 00:05:14;;;;;;;16.73;12.90;;;;;;;6.25;82.71;102418.97;4959302;28;20267;-76
2021/10/11 00:07:41;;;;;;;20.37;14.27;;;;;;;6.31;83.79;102411.75;4976801;28;20213;-78
2021/10/11 00:10:08;;;;;;;20.50;14.37;;;;;;;6.39;83.82;102408.88;4976056;28;20189;-78
2021/10/11 00:12:34;;;;;;;19.73;15.30;;;;;;;6.37;84.86;102409.56;4976408;28;20227;-78
2021/10/11 00:14:59;;;;;;;20.33;15.50;;;;;;;6.36;84.29;102416.31;4974305;28;20215;-78
2021/10/11 00:17:25;;;;;;;18.67;14.67;;;;;;;6.43;84.69;102407.38;4958367;28;20657;-78
2021/10/11 00:19:51;;;;;;;19.13;14.73;;;;;;;6.45;84.85;102401.59;4974905;28;20260;-78
2021/10/11 00:22:21;;;;;;;17.70;14.87;;;;;;;6.51;84.24;102408.75;4973915;28;20562;-77
2021/10/11 00:24:47;;;;;;;18.80;14.53;;;;;;;6.53;84.43;102402.97;4974046;28;20641;-77
2021/10/11 00:27:13;;;;;;;20.70;14.67;;;;;;;6.53;84.72;102407.16;4974145;28;20184;-78
2021/10/11 00:29:39;;;;;;;20.10;15.40;;;;;;;6.60;84.47;102404.22;4958094;28;20196;-77
2021/10/11 00:32:07;;;;;;;19.33;15.17;;;;;;;6.66;83.82;102409.66;4974258;28;20204;-77
2021/10/11 00:34:34;;;;;;;20.70;14.53;;;;;;;6.69;84.17;102413.28;4958340;28;20219;-78
2021/10/11 00:36:59;;;;;;;21.37;16.17;;;;;;;6.71;83.82;102414.25;4974413;28;20196;-77
2021/10/11 00:39:25;;;;;;;19.43;15.10;;;;;;;6.75;84.19;102415.28;4958276;28;20680;-77
2021/10/11 00:41:50;;;;;;;21.07;15.37;;;;;;;6.76;84.80;102402.66;4958212;28;20197;-79
2021/10/11 00:44:16;;;;;;;20.80;15.90;;;;;;;6.82;83.30;102412.34;4958880;28;20647;-78
2021/10/11 00:46:41;;;;;;;20.60;15.07;;;;;;;6.83;84.37;102409.00;4975997;28;20269;-78
2021/10/11 00:49:06;;;;;;;20.33;16.03;;;;;;;6.89;83.66;102414.44;4975938;28;20185;-78
2021/10/11 00:51:32;;;;;;;21.43;15.43;;;;;;;6.94;83.37;102413.03;4958457;28;20193;-76
2021/10/11 00:53:58;;;;;;;20.03;15.90;;;;;;;6.95;83.78;102408.03;4958151;28;20197;-76
2021/10/11 00:56:23;;;;;;;23.93;17.20;;;;;;;6.96;84.34;102403.84;4954057;28;20193;-77
2021/10/11 00:58:49;;;;;;;22.67;15.93;;;;;;;7.00;84.08;102404.09;4971735;28;20985;-76
2021/10/11 01:01:14;;;;;;;21.27;16.53;;;;;;;7.05;84.35;102404.38;4970706;28;20244;-77
2021/10/11 01:03:40;;;;;;;20.27;16.93;;;;;;;7.02;84.90;102402.53;4954449;28;20196;-77
2021/10/11 01:06:06;;;;;;;23.73;17.57;;;;;;;7.02;84.50;102400.00;4970471;28;20192;-77
2021/10/11 01:08:31;;;;;;;23.77;17.43;;;;;;;7.11;84.60;102386.91;4954979;28;20189;-76
2021/10/11 01:10:57;;;;;;;22.67;17.50;;;;;;;7.14;84.40;102387.09;4955361;28;20193;-77
2021/10/11 01:13:23;;;;;;;26.77;16.70;;;;;;;7.17;84.26;102383.03;4971411;28;20197;-77
2021/10/11 01:15:48;;;;;;;21.17;17.50;;;;;;;7.19;84.55;102383.13;4971037;28;20220;-78
2021/10/11 01:18:13;;;;;;;25.27;18.70;;;;;;;7.20;84.57;102375.59;4973138;28;20180;-78
2021/10/11 01:20:38;;;;;;;24.00;17.27;;;;;;;7.24;84.06;102376.63;4973529;28;20585;-79
2021/10/11 01:23:04;;;;;;;23.07;17.17;;;;;;;7.27;84.31;102371.72;4976076;28;20314;-77
2021/10/11 01:25:29;;;;;;;22.67;17.40;;;;;;;7.31;83.81;102366.88;4976591;28;20204;-76
2021/10/11 01:27:55;;;;;;;23.40;16.37;;;;;;;7.36;83.12;102374.75;4959799;28;20243;-78
2021/10/11 01:30:20;;;;;;;22.60;16.90;;;;;;;7.41;84.53;102356.41;4975402;28;20601;-78
2021/10/11 01:32:46;;;;;;;22.87;18.07;;;;;;;7.44;83.99;102358.25;4975704;28;20601;-77
2021/10/11 01:35:12;;;;;;;26.13;17.70;;;;;;;7.46;84.62;102366.88;4977124;28;20208;-78
2021/10/11 01:37:38;;;;;;;22.77;17.53;;;;;;;7.49;83.88;102367.91;4976358;28;20212;-78
2021/10/11 01:40:05;;;;;;;28.07;18.83;;;;;;;7.51;85.24;102368.00;4960780;28;20717;-77
2021/10/11 01:42:31;;;;;;;26.37;18.90;;;;;;;7.51;84.63;102368.88;4977518;28;20192;-77
2021/10/11 01:44:56;;;;;;;25.93;19.70;;;;;;;7.52;84.28;102370.66;4979121;28;20205;-78
2021/10/11 01:47:24;;;;;;;28.63;20.60;;;;;;;7.56;85.35;102367.44;4977060;28;20700;-77
2021/10/11 01:49:49;;;;;;;26.07;20.07;;;;;;;7.61;85.02;102362.63;4960787;28;20196;-78
2021/10/11 01:52:15;;;;;;;28.13;20.27;;;;;;;7.65;84.55;102362.88;4961597;28;20189;-78
2021/10/11 01:54:40;;;;;;;25.77;19.80;;;;;;;7.61;85.27;102360.94;4977664;28;20212;-79
2021/10/11 01:57:05;;;;;;;27.77;20.93;;;;;;;7.61;86.11;102366.03;4977243;28;20270;-79
2021/10/11 01:59:31;;;;;;;30.20;21.77;;;;;;;7.62;86.23;102359.28;4960693;28;20193;-78
2021/10/11 02:01:56;;;;;;;29.33;22.23;;;;;;;7.63;86.12;102356.81;4961098;28;20180;-78
2021/10/11 02:04:22;;;;;;;33.47;23.47;;;;;;;7.66;86.83;102341.69;4977554;28;20713;-78
2021/10/11 02:06:47;;;;;;;31.97;22.47;;;;;;;7.69;87.14;102352.03;4977414;28;20232;-77
2021/10/11 02:09:13;;;;;;;31.47;23.60;;;;;;;7.74;86.21;102352.31;4977183;28;20193;-78
2021/10/11 02:11:38;;;;;;;32.50;23.73;;;;;;;7.75;87.51;102343.88;4961666;28;20232;-79
2021/10/11 02:14:03;;;;;;;32.83;24.13;;;;;;;7.77;86.86;102343.16;4960700;28;20279;-78
2021/10/11 02:16:29;;;;;;;32.53;23.93;;;;;;;7.79;86.64;102348.34;4960452;28;20193;-79
2021/10/11 02:18:54;;;;;;;33.07;23.97;;;;;;;7.80;87.08;102342.44;4976897;28;20681;-79
2021/10/11 02:21:20;;;;;;;31.87;23.23;;;;;;;7.84;86.83;102347.78;4976632;28;20270;-77
2021/10/11 02:23:45;;;;;;;32.80;23.47;;;;;;;7.90;85.97;102342.13;4960457;28;20200;-78
2021/10/11 02:26:10;;;;;;;35.33;23.87;;;;;;;7.91;86.78;102342.22;4959936;28;20193;-79
2021/10/11 02:28:36;;;;;;;33.27;24.17;;;;;;;7.95;86.70;102344.16;4978262;28;20554;-77
2021/10/11 02:31:01;;;;;;;31.33;21.73;;;;;;;7.98;86.09;102340.88;4960296;28;20647;-78
2021/10/11 02:33:27;;;;;;;28.77;22.07;;;;;;;8.02;86.17;102332.59;4960742;28;20177;-79
2021/10/11 02:35:53;;;;;;;30.27;23.63;;;;;;;8.03;86.96;102331.81;4960528;28;20727;-79
2021/10/11 02:38:18;;;;;;;32.57;23.60;;;;;;;8.06;86.95;102329.44;4978325;28;20232;-79
2021/10/11 02:40:44;;;;;;;31.73;23.80;;;;;;;8.07;86.71;102326.06;4960424;28;20587;-78
2021/10/11 02:43:09;;;;;;;34.27;24.90;;;;;;;8.06;86.71;102326.88;4978807;28;20732;-79
2021/10/11 02:45:34;;;;;;;30.23;24.30;;;;;;;8.07;86.67;102331.19;4977797;28;20211;-79
2021/10/11 02:48:06;;;;;;;36.43;24.97;;;;;;;8.08;86.23;102328.72;4960630;28;20197;-77
2021/10/11 02:50:32;;;;;;;39.13;27.63;;;;;;;8.04;87.03;102331.88;4960950;28;20189;-78
2021/10/11 02:52:57;;;;;;;35.20;26.17;;;;;;;8.05;87.38;102323.44;4978737;28;20276;-79
2021/10/11 02:55:24;;;;;;;35.00;26.17;;;;;;;8.06;87.07;102324.31;4960670;28;20220;-77
2021/10/11 02:57:50;;;;;;;36.77;26.77;;;;;;;8.10;86.96;102318.56;4977956;28;20231;-77
2021/10/11 03:00:15;;;;;;;37.17;26.50;;;;;;;8.11;87.72;102316.09;4977899;28;20224;-79
2021/10/11 03:02:40;;;;;;;40.50;29.87;;;;;;;8.10;87.81;102316.91;4961187;28;20279;-77
2021/10/11 03:05:06;;;;;;;39.37;28.47;;;;;;;8.13;86.81;102313.63;4978283;28;20250;-79
2021/10/11 03:07:32;;;;;;;39.97;27.40;;;;;;;8.17;86.51;102313.00;4961068;28;20188;-78
2021/10/11 03:09:57;;;;;;;36.23;26.63;;;;;;;8.19;86.96;102303.75;4978389;28;20185;-78
2021/10/11 03:12:22;;;;;;;38.87;28.53;;;;;;;8.18;87.12;102304.53;4960478;28;20305;-79
2021/10/11 03:14:49;;;;;;;34.40;25.97;;;;;;;8.24;86.53;102308.31;4960477;28;20239;-79
2021/10/11 03:17:14;;;;;;;40.83;28.23;;;;;;;8.27;86.46;102316.16;4960162;28;20247;-78
2021/10/11 03:19:40;;;;;;;38.30;27.57;;;;;;;8.26;86.60;102314.41;4961076;28;20216;-78
2021/10/11 03:22:05;;;;;;;41.03;26.70;;;;;;;8.29;86.50;102317.09;4976667;28;20197;-77
2021/10/11 03:24:30;;;;;;;35.30;27.37;;;;;;;8.31;86.70;102319.72;4976005;28;20216;-78
2021/10/11 03:26:56;;;;;;;38.50;27.73;;;;;;;8.31;86.57;102320.63;4976211;28;20192;-77
2021/10/11 03:29:21;;;;;;;36.80;26.83;;;;;;;8.35;87.20;102302.13;4976308;28;20250;-77
2021/10/11 03:31:46;;;;;;;39.47;26.10;;;;;;;8.38;86.59;102303.94;4977396;28;20195;-78
2021/10/11 03:34:12;;;;;;;40.70;27.50;;;;;;;8.40;86.97;102305.78;4976707;28;20209;-77
2021/10/11 03:36:39;;;;;;;35.47;26.60;;;;;;;8.41;87.33;102311.75;4977272;28;20188;-78
2021/10/11 03:39:06;;;;;;;37.00;26.53;;;;;;;8.43;86.13;102302.50;4960199;28;20188;-78
2021/10/11 03:41:32;;;;;;;38.13;26.40;;;;;;;8.44;86.31;102302.56;4976379;28;20243;-79
2021/10/11 03:43:57;;;;;;;41.17;29.20;;;;;;;8.38;87.46;102297.16;4959595;28;20384;-77
2021/10/11 03:46:23;;;;;;;38.33;27.63;;;;;;;8.39;87.01;102300.59;4975766;28;20229;-79
2021/10/11 03:48:48;;;;;;;42.20;29.07;;;;;;;8.38;87.71;102297.16;4960108;28;20185;-79
2021/10/11 03:51:13;;;;;;;40.17;27.83;;;;;;;8.36;88.04;102297.88;4960003;28;20673;-78
2021/10/11 03:53:39;;;;;;;39.10;27.27;;;;;;;8.39;86.86;102304.00;4959793;28;20263;-78
2021/10/11 03:56:04;;;;;;;39.70;27.63;;;;;;;8.42;87.54;102309.28;4960205;28;20239;-77
2021/10/11 03:58:29;;;;;;;38.87;27.37;;;;;;;8.43;87.46;102298.25;4960209;28;20188;-79
2021/10/11 04:00:55;;;;;;;39.17;28.10;;;;;;;8.46;87.05;102306.09;4977340;28;20205;-79
2021/10/11 04:03:20;;;;;;;36.67;26.33;;;;;;;8.50;86.51;102299.47;4977022;28;20188;-78
2021/10/11 04:05:45;;;;;;;37.33;26.57;;;;;;;8.51;86.93;102294.44;4976311;28;20214;-79
2021/10/11 04:08:17;;;;;;;39.10;28.00;;;;;;;8.49;87.19;102290.06;4976167;28;20239;-78
2021/10/11 04:13:19;;;;;;;39.07;28.57;;;;;;;8.51;86.68;102293.53;4976654;28;20243;-79
2021/10/11 04:15:45;;;;;;;38.27;27.90;;;;;;;8.52;87.13;102301.28;4976177;28;20340;-79
2021/10/11 04:18:10;;;;;;;42.00;30.53;;;;;;;8.51;86.94;102291.00;4960456;28;20222;-79
2021/10/11 04:20:35;;;;;;;42.27;29.43;;;;;;;8.53;86.93;102286.84;4959650;28;20227;-77
2021/10/11 04:23:01;;;;;;;42.90;30.53;;;;;;;8.51;87.46;102299.53;4976102;28;20241;-79
2021/10/11 04:25:26;;;;;;;42.80;29.83;;;;;;;8.50;86.99;102297.78;4976614;28;20581;-79
2021/10/11 04:27:51;;;;;;;39.83;28.23;;;;;;;8.51;87.52;102297.00;4975893;28;20623;-79
2021/10/11 04:30:17;;;;;;;41.70;28.63;;;;;;;8.56;86.45;102294.66;4978470;28;20275;-79
2021/10/11 04:32:42;;;;;;;40.30;28.23;;;;;;;8.59;86.42;102299.91;4976060;28;20260;-78
2021/10/11 04:35:08;;;;;;;42.83;29.87;;;;;;;8.58;86.42;102304.16;4976187;28;20220;-78
2021/10/11 04:37:33;;;;;;;43.87;29.77;;;;;;;8.58;86.23;102301.63;4976327;28;20188;-79
2021/10/11 04:39:58;;;;;;;46.80;33.43;;;;;;;8.57;87.12;102301.53;4977606;28;20220;-78
2021/10/11 04:42:24;;;;;;;46.50;32.73;;;;;;;8.55;87.52;102303.13;4976175;28;20288;-79
2021/10/11 04:44:49;;;;;;;42.10;31.33;;;;;;;8.54;87.21;102299.72;4976179;28;20708;-79
2021/10/11 04:47:14;;;;;;;45.90;32.97;;;;;;;8.54;87.66;102309.03;4976092;28;20642;-77
2021/10/11 04:49:40;;;;;;;53.53;34.90;;;;;;;8.53;88.08;102303.03;4975555;28;20231;-77
2021/10/11 04:52:05;;;;;;;48.07;32.73;;;;;;;8.54;87.43;102309.91;4977063;28;20173;-80
2021/10/11 04:54:30;;;;;;;45.00;31.20;;;;;;;8.59;87.15;102303.38;4976315;28;20208;-79
2021/10/11 04:56:56;;;;;;;46.83;31.67;;;;;;;8.63;86.90;102299.28;4960708;28;20195;-79
2021/10/11 04:59:21;;;;;;;44.77;31.00;;;;;;;8.62;87.52;102308.59;4963119;28;20197;-77
2021/10/11 05:01:46;;;;;;;46.77;31.80;;;;;;;8.60;86.81;102302.56;4979500;28;20235;-78
2021/10/11 05:04:12;;;;;;;47.37;32.20;;;;;;;8.57;87.08;102306.66;4979458;28;20215;-78
2021/10/11 05:06:37;;;;;;;46.70;32.13;;;;;;;8.56;87.60;102308.31;4980796;28;20188;-79
2021/10/11 05:09:03;;;;;;;46.30;32.40;;;;;;;8.57;87.01;102310.06;4963830;28;20553;-78
2021/10/11 05:11:29;;;;;;;47.03;32.90;;;;;;;8.58;86.54;102304.16;4962901;28;20416;-78
2021/10/11 05:13:55;;;;;;;45.53;31.37;;;;;;;8.59;87.22;102311.03;4963686;28;20209;-79
2021/10/11 05:16:21;;;;;;;44.73;32.13;;;;;;;8.58;86.94;102311.84;4963111;28;20340;-80
2021/10/11 05:18:47;;;;;;;41.53;29.80;;;;;;;8.61;86.94;102323.88;4963038;28;20193;-77
2021/10/11 05:21:12;;;;;;;44.47;32.63;;;;;;;8.63;86.75;102325.69;4963152;28;20228;-78
2021/10/11 05:23:37;;;;;;;45.33;34.33;;;;;;;8.65;86.88;102324.09;4979954;28;20207;-79
2021/10/11 05:26:03;;;;;;;53.53;36.57;;;;;;;8.66;87.36;102325.84;4978536;28;20188;-80
2021/10/11 05:28:28;;;;;;;51.10;35.13;;;;;;;8.67;87.48;102325.03;4963296;28;20617;-78
2021/10/11 05:30:54;;;;;;;47.33;32.97;;;;;;;8.69;87.71;102330.22;4979278;28;20658;-78
2021/10/11 05:33:22;;;;;;;46.33;33.60;;;;;;;8.70;87.78;102337.09;4978909;28;20189;-78
2021/10/11 05:35:50;;;;;;;52.47;34.40;;;;;;;8.71;87.30;102334.59;4978874;28;20219;-79
2021/10/11 05:38:15;;;;;;;66.73;39.67;;;;;;;8.78;88.47;102331.56;4961765;28;20189;-79
2021/10/11 05:40:41;;;;;;;81.30;47.30;;;;;;;8.87;89.91;102333.69;4978171;28;20224;-78
2021/10/11 05:43:07;;;;;;;76.57;46.33;;;;;;;8.91;89.56;102331.41;4962339;28;20181;-78
2021/10/11 05:45:33;;;;;;;75.80;45.37;;;;;;;8.94;89.96;102331.53;4960869;28;20572;-79
2021/10/11 05:47:58;;;;;;;75.43;46.10;;;;;;;8.96;90.46;102319.72;4961428;28;20203;-79
2021/10/11 05:50:24;;;;;;;79.40;48.17;;;;;;;9.02;90.07;102324.22;4977678;28;20551;-79
2021/10/11 05:52:49;;;;;;;81.20;45.83;;;;;;;9.04;90.06;102326.06;4961714;28;20273;-78
2021/10/11 05:55:15;;;;;;;81.23;46.10;;;;;;;9.09;90.55;102321.19;4960648;28;20205;-78
2021/10/11 05:57:41;;;;;;;80.93;46.10;;;;;;;9.10;91.29;102323.81;4961512;28;20189;-80
2021/10/11 06:00:07;;;;;;;85.70;47.53;;;;;;;9.11;91.35;102330.69;4977682;28;20217;-79
2021/10/11 06:02:33;;;;;;;85.53;46.67;;;;;;;9.11;90.67;102322.13;4962372;28;20705;-79
2021/10/11 06:04:58;;;;;;;78.57;45.80;;;;;;;9.13;91.14;102321.41;4961677;28;20219;-80
2021/10/11 06:07:23;;;;;;;82.83;46.37;;;;;;;9.14;90.41;102309.50;4978425;28;20219;-79
2021/10/11 06:09:49;;;;;;;71.43;43.13;;;;;;;9.15;91.03;102313.81;4961668;28;20192;-78
2021/10/11 06:12:14;;;;;;;69.93;42.20;;;;;;;9.16;89.94;102313.91;4961480;28;20189;-79
2021/10/11 06:14:42;;;;;;;64.03;38.43;;;;;;;9.19;90.21;102318.28;4961260;28;20200;-79
2021/10/11 06:17:07;;;;;;;67.87;41.30;;;;;;;9.26;90.73;102317.78;4976950;28;20193;-79
2021/10/11 06:19:32;;;;;;;71.63;40.60;;;;;;;9.29;90.29;102311.13;4960900;28;20279;-80
2021/10/11 06:21:58;;;;;;;69.57;41.40;;;;;;;9.36;90.84;102322.53;4961218;28;20189;-79
2021/10/11 06:24:23;;;;;;;77.67;43.43;;;;;;;9.44;90.93;102322.09;4960665;28;20232;-78
2021/10/11 06:26:49;;;;;;;69.47;41.07;;;;;;;9.45;90.29;102322.97;4976596;28;20208;-79
2021/10/11 06:29:15;;;;;;;69.53;40.10;;;;;;;9.46;89.99;102317.03;4977375;28;20231;-80
2021/10/11 06:31:40;;;;;;;61.13;37.37;;;;;;;9.57;89.96;102333.75;4961318;28;20216;-79
2021/10/11 06:34:06;;;;;;;60.77;37.23;;;;;;;9.75;89.45;102334.63;4979070;28;20281;-78
2021/10/11 06:36:35;;;;;;;68.37;38.33;;;;;;;9.81;89.94;102327.25;4977177;28;20189;-77
2021/10/11 06:39:03;;;;;;;65.67;37.00;;;;;;;9.87;89.51;102332.63;4978038;28;20646;-79
2021/10/11 06:41:29;;;;;;;56.50;34.13;;;;;;;9.95;89.93;102333.88;4961452;28;20310;-80
2021/10/11 06:43:55;;;;;;;58.57;35.33;;;;;;;9.96;89.89;102333.06;4961729;28;20276;-78
2021/10/11 06:46:20;;;;;;;54.87;34.97;;;;;;;10.00;89.48;102338.38;4961284;28;20189;-78
2021/10/11 06:48:45;;;;;;;56.33;36.27;;;;;;;10.05;89.72;102336.94;4977602;28;20245;-78
2021/10/11 06:51:11;;;;;;;59.13;37.53;;;;;;;10.04;90.09;102339.41;4960501;28;20606;-78
2021/10/11 06:53:36;;;;;;;61.80;37.33;;;;;;;10.05;89.88;102344.59;4960500;28;20612;-79
2021/10/11 06:56:03;;;;;;;56.97;34.67;;;;;;;10.06;89.26;102348.94;4975806;28;20199;-80
2021/10/11 06:58:28;;;;;;;51.10;35.10;;;;;;;10.15;89.73;102348.47;4960001;28;20192;-78
2021/10/11 07:00:54;;;;;;;56.33;36.10;;;;;;;10.29;89.20;102338.06;4978318;28;20216;-79
2021/10/11 07:03:24;;;;;;;53.53;34.63;;;;;;;10.43;88.80;102336.97;4976419;28;20193;-79
2021/10/11 07:05:51;;;;;;;51.57;35.23;;;;;;;10.50;88.56;102341.53;4959286;28;20212;-79
2021/10/11 07:08:16;;;;;;;51.83;35.17;;;;;;;10.54;88.58;102333.19;4960642;28;20196;-80
2021/10/11 07:10:41;;;;;;;54.63;36.43;;;;;;;10.48;88.89;102338.06;4976990;28;20176;-78
2021/10/11 07:13:07;;;;;;;50.10;34.93;;;;;;;10.54;88.74;102347.66;4976354;28;20240;-78
2021/10/11 07:15:33;;;;;;;55.20;36.67;;;;;;;10.45;89.22;102345.59;4976324;28;20204;-78
2021/10/11 07:17:59;;;;;;;54.73;34.80;;;;;;;10.53;88.69;102349.38;4976169;28;20232;-78
2021/10/11 07:20:24;;;;;;;49.17;35.20;;;;;;;10.57;88.33;102347.81;4975002;28;20648;-79
2021/10/11 07:22:50;;;;;;;47.37;33.10;;;;;;;10.61;88.22;102350.59;4959736;28;20197;-79
2021/10/11 07:25:15;;;;;;;49.47;33.27;;;;;;;10.71;88.26;102355.28;4975563;28;20263;-78
2021/10/11 07:27:41;;;;;;;49.23;33.70;;;;;;;10.73;88.05;102360.47;4958594;28;20189;-78
2021/10/11 07:30:07;;;;;;;51.93;33.70;;;;;;;10.72;88.02;102362.16;4975153;28;20224;-79
2021/10/11 07:32:32;;;;;;;50.03;33.80;;;;;;;10.77;87.57;102370.03;4958969;28;20185;-80
2021/10/11 07:34:59;;;;;;;43.90;32.53;;;;;;;10.86;87.57;102367.84;4975259;28;20492;-78
2021/10/11 07:37:24;;;;;;;48.20;33.40;;;;;;;10.89;87.42;102368.88;4958078;28;20279;-79
2021/10/11 07:39:50;;;;;;;48.23;32.83;;;;;;;10.90;88.20;102367.19;4974812;28;20299;-79
2021/10/11 07:42:16;;;;;;;43.83;30.77;;;;;;;10.99;87.02;102367.56;4977355;28;20536;-78
2021/10/11 07:44:41;;;;;;;43.57;29.50;;;;;;;11.10;86.83;102367.19;4959072;28;20732;-79
2021/10/11 07:47:07;;;;;;;43.07;28.13;;;;;;;11.32;85.75;102366.38;4974515;28;20192;-79
2021/10/11 07:49:32;;;;;;;44.27;29.57;;;;;;;11.35;86.10;102369.09;4974565;28;20195;-79
2021/10/11 07:51:57;;;;;;;40.43;29.63;;;;;;;11.39;85.94;102371.81;4959006;28;20196;-80
2021/10/11 07:54:23;;;;;;;40.60;28.43;;;;;;;11.52;85.78;102370.66;4959361;28;20215;-78
2021/10/11 07:56:48;;;;;;;44.43;29.10;;;;;;;11.40;85.62;102367.59;4974924;28;20196;-78
2021/10/11 07:59:14;;;;;;;36.63;26.73;;;;;;;11.44;85.73;102367.78;4975586;28;20200;-80
2021/10/11 08:01:40;;;;;;;41.97;28.40;;;;;;;11.50;85.80;102365.47;4976428;28;20219;-80
2021/10/11 08:04:05;;;;;;;41.80;28.47;;;;;;;11.59;85.69;102371.00;4958630;28;20950;-79
2021/10/11 08:06:32;;;;;;;37.73;26.17;;;;;;;11.73;85.80;102361.25;4958562;28;20239;-79
2021/10/11 08:08:58;;;;;;;36.17;27.33;;;;;;;11.90;84.56;102366.22;4958681;28;20220;-78
2021/10/11 08:11:24;;;;;;;41.97;26.60;;;;;;;12.03;84.69;102365.88;4958513;28;20649;-78
2021/10/11 08:13:49;;;;;;;36.93;26.67;;;;;;;12.20;83.84;102371.63;4974777;28;20192;-79
2021/10/11 08:16:14;;;;;;;36.37;25.63;;;;;;;12.23;83.40;102364.94;4958163;28;20192;-79
2021/10/11 08:18:40;;;;;;;34.37;24.80;;;;;;;12.26;83.67;102364.19;4974508;28;20245;-79
2021/10/11 08:21:05;;;;;;;35.43;25.40;;;;;;;12.88;81.52;102355.31;4974898;28;20204;-79
2021/10/11 08:23:35;;;;;;;29.27;23.23;;;;;;;13.11;80.52;102357.81;4958566;28;20196;-77
2021/10/11 08:26:02;;;;;;;29.77;21.80;;;;;;;13.61;79.18;102353.47;4958816;28;20562;-79
2021/10/11 08:28:28;;;;;;;28.13;22.07;;;;;;;13.89;78.28;102348.34;4976483;28;20275;-78
2021/10/11 08:30:54;;;;;;;27.37;21.53;;;;;;;14.10;78.14;102342.94;4975836;28;20275;-78
2021/10/11 08:33:19;;;;;;;27.13;20.40;;;;;;;14.49;77.52;102337.25;4976500;28;20545;-78
2021/10/11 08:35:45;;;;;;;27.60;19.83;;;;;;;14.88;75.79;102334.84;4959420;28;20212;-79
2021/10/11 08:38:10;;;;;;;27.63;17.00;;;;;;;15.01;74.65;102342.09;4959432;28;20192;-78
2021/10/11 08:40:36;;;;;;;22.90;16.10;;;;;;;15.01;74.35;102342.09;4958991;28;20231;-79
2021/10/11 08:43:02;;;;;;;19.53;16.00;;;;;;;15.44;74.19;102337.16;4975962;28;20224;-78
2021/10/11 08:45:27;;;;;;;20.00;15.17;;;;;;;15.91;74.53;102339.97;4975395;28;20204;-78
2021/10/11 08:47:53;;;;;;;16.50;12.30;;;;;;;15.82;71.06;102342.38;4978422;28;20211;-79
2021/10/11 08:50:18;;;;;;;16.30;13.23;;;;;;;16.60;68.17;102335.38;4977637;28;20498;-79
2021/10/11 08:52:45;;;;;;;16.80;12.27;;;;;;;16.30;69.28;102340.81;4976147;28;20192;-79
2021/10/11 08:55:11;;;;;;;16.67;12.20;;;;;;;16.66;68.71;102333.78;4975788;28;20271;-78
2021/10/11 08:57:36;;;;;;;16.77;11.57;;;;;;;16.70;67.61;102343.34;4960240;28;20181;-79
2021/10/11 09:00:10;;;;;;;15.40;11.80;;;;;;;19.15;60.00;102321.69;4976669;28;20767;-78
2021/10/11 09:02:35;;;;;;;14.33;10.97;;;;;;;23.51;47.60;102303.19;4978444;28;20188;-78
2021/10/11 09:05:01;;;;;;;12.83;10.37;;;;;;;24.15;44.91;102309.47;4976451;28;20197;-78
2021/10/11 09:07:28;;;;;;;12.23;9.23;;;;;;;26.42;40.28;102294.09;4977819;28;20196;-79
2021/10/11 09:09:56;;;;;;;10.25;8.57;;;;;;;27.75;37.08;102291.59;4960594;28;20650;-79
2021/10/11 09:12:24;;;;;;;12.93;9.57;;;;;;;27.02;38.17;102286.53;4976167;28;20215;-79
2021/10/11 09:15:09;;;;;;;11.85;8.88;;;;;;;25.54;40.58;102299.44;4975242;28;20205;-80
2021/10/11 09:17:41;;;;;;;10.00;6.72;;;;;;;26.70;38.68;102295.22;4970605;28;20203;-79
2021/10/11 09:20:19;;;;;;;13.15;7.55;;;;;;;28.09;36.10;102282.72;4975608;28;20673;-79
2021/10/11 09:22:47;;;;;;;7.93;6.25;;;;;;;30.30;32.66;102282.16;4972632;28;20569;-78
2021/10/11 09:25:14;;;;;;;11.32;6.25;;;;;;;24.73;41.37;102292.94;4955419;28;20302;-78
2021/10/11 09:27:54;;;;;;;12.27;5.90;;;;;;;22.52;48.45;102306.63;4955311;28;20196;-78
2021/10/11 09:30:25;;;;;;;11.03;6.27;;;;;;;20.49;53.02;102312.09;4971689;28;20208;-78
2021/10/11 09:32:51;;;;;;;10.60;6.03;;;;;;;19.28;56.75;102318.38;4972279;28;20188;-77
2021/10/11 09:35:20;;;;;;;11.50;7.27;;;;;;;17.96;60.66;102316.91;4971421;28;20209;-79
2021/10/11 09:37:50;;;;;;;11.60;6.50;;;;;;;18.56;59.43;102316.81;4973734;28;20220;-78
2021/10/11 09:40:21;;;;;;;11.10;6.60;;;;;;;19.48;56.00;102315.94;4972519;28;20634;-78
2021/10/11 09:42:47;;;;;;;10.40;5.90;;;;;;;21.24;50.86;102307.84;4975243;28;20196;-79
2021/10/11 09:45:12;;;;;;;12.13;5.97;;;;;;;23.94;45.25;102300.13;4976121;28;20559;-78
2021/10/11 09:47:44;;;;;;;8.77;4.72;;;;;;;30.11;33.29;102276.66;4975871;28;20184;-80
2021/10/11 09:50:12;;;;;;;9.35;4.43;;;;;;;29.90;31.43;102261.63;4976978;28;20200;-80
2021/10/11 09:52:39;;;;;;;6.43;3.80;;;;;;;31.06;30.18;102257.81;4991932;28;20657;-79
2021/10/11 09:55:06;;;;;;;7.13;3.50;;;;;;;29.96;31.25;102264.03;4975612;28;20226;-78
2021/10/11 09:57:35;;;;;;;8.98;4.10;;;;;;;27.15;35.71;102266.91;4976339;28;20559;-79
2021/10/11 10:00:07;;;;;;;7.70;3.70;;;;;;;23.46;44.18;102278.84;4976140;28;20212;-78
2021/10/11 10:02:40;;;;;;;7.63;3.80;;;;;;;25.91;40.05;102263.69;4976242;28;20557;-78
2021/10/11 10:05:21;;;;;;;6.88;3.40;;;;;;;22.35;47.17;102278.81;4976737;28;20209;-78
2021/10/11 10:07:49;;;;;;;7.20;2.90;;;;;;;22.81;44.14;102279.41;4976714;28;20181;-78
2021/10/11 10:10:18;;;;;;;8.23;2.83;;;;;;;27.87;34.88;102257.06;4975222;28;20180;-79
2021/10/11 10:12:48;;;;;;;6.30;2.72;;;;;;;30.17;29.50;102245.59;4977018;28;20227;-79
2021/10/11 10:15:31;;;;;;;7.22;2.90;;;;;;;32.10;27.53;102242.50;4959134;28;20228;-78
2021/10/11 10:18:11;;;;;;;9.00;2.83;;;;;;;31.08;27.81;102242.69;4958758;28;20227;-81
2021/10/11 10:20:49;;;;;;;6.00;2.65;;;;;;;33.03;26.29;102232.56;4958339;28;20216;-79
2021/10/11 10:23:25;;;;;;;5.55;2.60;;;;;;;33.89;24.89;102228.81;4975231;28;20180;-80
2021/10/11 10:25:50;;;;;;;6.22;2.72;;;;;;;34.06;24.95;102226.94;4976356;28;20204;-77
2021/10/11 10:28:16;;;;;;;6.38;3.30;;;;;;;33.55;25.29;102229.75;4974361;28;20239;-78
2021/10/11 10:30:42;;;;;;;6.22;2.85;;;;;;;31.47;28.02;102246.31;4974477;28;20200;-80
2021/10/11 10:33:12;;;;;;;5.97;2.17;;;;;;;28.83;30.56;102246.94;4974974;28;20196;-80
2021/10/11 10:35:39;;;;;;;6.32;2.40;;;;;;;25.91;36.60;102257.53;4976915;28;20220;-79
2021/10/11 10:38:19;;;;;;;6.43;2.35;;;;;;;23.08;42.10;102267.84;4974958;28;20243;-78
2021/10/11 10:40:46;;;;;;;6.05;2.15;;;;;;;26.05;35.60;102238.00;4976913;28;20216;-80
2021/10/11 10:43:15;;;;;;;5.32;2.42;;;;;;;28.00;33.28;102248.72;4976829;28;20359;-79
2021/10/11 10:45:41;;;;;;;7.20;2.88;;;;;;;30.67;29.16;102234.78;4975803;28;20698;-81
2021/10/11 10:48:20;;;;;;;7.20;2.53;;;;;;;32.14;26.81;102215.75;4975512;28;20181;-80
2021/10/11 10:50:46;;;;;;;5.03;2.30;;;;;;;32.97;25.58;102216.94;4976318;28;20188;-79
2021/10/11 10:53:12;;;;;;;8.90;3.17;;;;;;;32.81;25.12;102216.00;4974286;28;20614;-81
2021/10/11 10:55:39;;;;;;;5.28;3.33;;;;;;;34.08;24.52;102205.56;4976199;28;20212;-78
2021/10/11 10:58:08;;;;;;;4.75;2.22;;;;;;;30.63;28.22;102218.16;4976730;28;20594;-79
2021/10/11 11:00:33;;;;;;;4.40;2.17;;;;;;;32.82;25.62;102204.47;4975886;28;20216;-81
2021/10/11 11:02:59;;;;;;;5.35;2.47;;;;;;;31.65;27.06;102211.03;4975272;28;20200;-79
2021/10/11 11:05:26;;;;;;;7.70;2.80;;;;;;;33.20;25.11;102205.97;4976487;28;20204;-80
2021/10/11 11:07:53;;;;;;;6.88;2.20;;;;;;;31.89;26.94;102207.25;4958848;28;20227;-80
2021/10/11 11:10:25;;;;;;;6.90;2.10;;;;;;;30.92;28.19;102198.41;4976590;28;20196;-80
2021/10/11 11:12:53;;;;;;;4.90;2.00;;;;;;;25.35;36.56;102213.22;4975055;28;20239;-81
2021/10/11 11:15:23;;;;;;;4.35;1.85;;;;;;;25.22;37.57;102215.16;4976284;28;20757;-79